createdAt,value
2019-03-09T00:02:02.613Z,0
2019-03-09T00:05:08.688Z,0
2019-03-09T00:08:14.731Z,0
2019-03-09T00:11:20.805Z,0
2019-03-09T00:14:26.872Z,0
2019-03-09T00:17:33.257Z,0
2019-03-09T00:20:39.221Z,0
2019-03-09T00:23:45.184Z,0
2019-03-09T00:26:51.333Z,0
2019-03-09T00:29:58.375Z,0
2019-03-09T00:33:04.498Z,0
2019-03-09T00:36:10.383Z,0
2019-03-09T00:39:16.508Z,0
2019-03-09T00:42:22.928Z,0
2019-03-09T00:45:29.857Z,0
2019-03-09T00:48:35.918Z,0
2019-03-09T00:51:44.442Z,0
2019-03-09T00:54:50.396Z,0
2019-03-09T00:57:57.483Z,0
2019-03-09T01:01:03.490Z,0
2019-03-09T01:04:09.509Z,0
2019-03-09T01:07:15.383Z,0
2019-03-09T01:10:21.325Z,0
2019-03-09T01:13:27.280Z,0
2019-03-09T01:16:33.339Z,0
2019-03-09T01:19:39.207Z,0
2019-03-09T01:22:45.359Z,0
2019-03-09T01:25:51.321Z,0
2019-03-09T01:28:57.274Z,0
2019-03-09T01:32:06.106Z,0
2019-03-09T01:35:12.177Z,0
2019-03-09T01:38:18.123Z,0
2019-03-09T01:41:24.005Z,0
2019-03-09T01:44:30.047Z,0
2019-03-09T01:47:36.161Z,0
2019-03-09T01:50:42.068Z,0
2019-03-09T01:53:47.942Z,0
2019-03-09T01:56:53.879Z,0
2019-03-09T01:59:59.838Z,0
2019-03-09T02:03:05.900Z,0
2019-03-09T02:06:11.859Z,0
2019-03-09T02:09:17.754Z,0
2019-03-09T02:12:23.678Z,0
2019-03-09T02:15:29.548Z,0
2019-03-09T02:18:35.594Z,0
2019-03-09T02:21:41.472Z,0
2019-03-09T02:24:47.514Z,0
2019-03-09T02:27:53.474Z,0
2019-03-09T02:30:59.440Z,0
2019-03-09T02:34:05.606Z,0
2019-03-09T02:37:11.560Z,0
2019-03-09T02:40:22.868Z,0
2019-03-09T02:43:29.123Z,0
2019-03-09T02:46:35.108Z,0
2019-03-09T02:49:41.194Z,0
2019-03-09T02:52:47.141Z,0
2019-03-09T02:55:53.157Z,0
2019-03-09T02:58:59.198Z,0
2019-03-09T03:02:05.255Z,0
2019-03-09T03:05:11.244Z,0
2019-03-09T03:08:17.198Z,0
2019-03-09T03:11:23.156Z,0
2019-03-09T03:14:29.135Z,0
2019-03-09T03:17:35.176Z,0
2019-03-09T03:20:41.237Z,0
2019-03-09T03:23:47.315Z,0
2019-03-09T03:26:53.363Z,0
2019-03-09T03:29:59.424Z,0
2019-03-09T03:33:05.490Z,0
2019-03-09T03:36:14.445Z,0
2019-03-09T03:39:20.358Z,0
2019-03-09T03:42:26.227Z,0
2019-03-09T03:45:32.141Z,0
2019-03-09T03:48:38.156Z,0
2019-03-09T03:51:44.116Z,0
2019-03-09T03:54:50.075Z,0
2019-03-09T03:57:56.111Z,0
2019-03-09T04:01:02.199Z,0
2019-03-09T04:04:08.239Z,0
2019-03-09T04:07:14.218Z,0
2019-03-09T04:10:20.357Z,0
2019-03-09T04:13:26.317Z,0
2019-03-09T04:16:32.415Z,0
2019-03-09T04:19:38.274Z,0
2019-03-09T04:22:44.510Z,0
2019-03-09T04:25:50.379Z,0
2019-03-09T04:28:56.392Z,0
2019-03-09T04:32:02.299Z,0
2019-03-09T04:35:08.263Z,0
2019-03-09T04:38:14.332Z,0
2019-03-09T04:41:20.197Z,0.1
2019-03-09T04:44:28.485Z,0.1
2019-03-09T04:47:34.458Z,0.2
2019-03-09T04:50:40.428Z,0.3
2019-03-09T04:53:46.484Z,0.4
2019-03-09T04:56:52.366Z,0.5
2019-03-09T04:59:58.299Z,0.6
2019-03-09T05:03:04.463Z,0.8
2019-03-09T05:06:10.503Z,1.1
2019-03-09T05:09:16.368Z,1.4
2019-03-09T05:12:22.336Z,2.1
2019-03-09T05:15:28.295Z,3
2019-03-09T05:18:34.335Z,59
2019-03-09T05:21:40.209Z,99.4
2019-03-09T05:24:46.326Z,5.6
2019-03-09T05:27:53.370Z,6.7
2019-03-09T05:30:59.234Z,8
2019-03-09T05:34:05.265Z,12.4
2019-03-09T05:37:11.238Z,9.9
2019-03-09T05:40:17.201Z,9.9
2019-03-09T05:43:26.341Z,11.3
2019-03-09T05:46:32.302Z,17.3
2019-03-09T05:49:38.254Z,22.6
2019-03-09T05:52:44.198Z,21.5
2019-03-09T05:55:50.080Z,24.1
2019-03-09T05:58:55.951Z,16.2
2019-03-09T06:02:01.886Z,13.8
2019-03-09T06:05:07.823Z,12.8
2019-03-09T06:08:13.920Z,12.1
2019-03-09T06:11:19.819Z,12.5
2019-03-09T06:14:25.724Z,13
2019-03-09T06:17:31.602Z,12.2
2019-03-09T06:20:40.001Z,12
2019-03-09T06:23:45.959Z,12.6
2019-03-09T06:26:51.969Z,14
2019-03-09T06:29:57.879Z,16
2019-03-09T06:33:03.930Z,22.9
2019-03-09T06:36:09.939Z,25
2019-03-09T06:39:15.978Z,37.1
2019-03-09T06:42:21.846Z,37.8
2019-03-09T06:45:27.779Z,40.5
2019-03-09T06:48:33.741Z,33.8
2019-03-09T06:51:39.754Z,30.8
2019-03-09T06:54:45.643Z,37.6
2019-03-09T06:57:51.622Z,41
2019-03-09T07:00:57.584Z,43.7
2019-03-09T07:04:03.553Z,200.2
2019-03-09T07:07:09.604Z,266.4
2019-03-09T07:10:15.677Z,283.7
2019-03-09T07:13:21.731Z,288
2019-03-09T07:16:27.687Z,290.9
2019-03-09T07:19:33.558Z,292.3
2019-03-09T07:22:39.702Z,290.9
2019-03-09T07:25:45.662Z,290.9
2019-03-09T07:28:53.830Z,289.4
2019-03-09T07:31:59.731Z,288
2019-03-09T07:35:05.608Z,288
2019-03-09T07:38:11.554Z,286.6
2019-03-09T07:41:17.508Z,286.6
2019-03-09T07:44:23.671Z,285.1
2019-03-09T07:47:29.632Z,283.7
2019-03-09T07:50:35.889Z,282.2
2019-03-09T07:53:41.764Z,282.2
2019-03-09T07:56:47.825Z,282.2
2019-03-09T07:59:53.695Z,37.6
2019-03-09T08:02:59.737Z,36.4
2019-03-09T08:06:05.789Z,34.4
2019-03-09T08:09:11.666Z,34
2019-03-09T08:12:17.627Z,32.4
2019-03-09T08:15:23.595Z,27.5
2019-03-09T08:18:29.547Z,27.4
2019-03-09T08:21:35.700Z,26.1
2019-03-09T08:24:41.555Z,25.9
2019-03-09T08:27:47.637Z,24.8
2019-03-09T08:30:53.591Z,26.1
2019-03-09T08:33:59.740Z,23.9
2019-03-09T08:37:05.763Z,26.5
2019-03-09T08:40:11.865Z,25.2
2019-03-09T08:43:17.931Z,23.8
2019-03-09T08:46:23.853Z,23.2
2019-03-09T08:49:29.899Z,23.6
2019-03-09T08:52:35.841Z,25.4
2019-03-09T08:55:41.906Z,25.4
2019-03-09T08:58:47.934Z,24.5
2019-03-09T09:01:53.888Z,23
2019-03-09T09:04:59.856Z,22.8
2019-03-09T09:08:07.148Z,21.1
2019-03-09T09:11:13.306Z,24.1
2019-03-09T09:14:19.171Z,23.8
2019-03-09T09:17:25.225Z,23.9
2019-03-09T09:20:31.376Z,24.1
2019-03-09T09:23:37.356Z,25.7
2019-03-09T09:26:43.227Z,26.3
2019-03-09T09:29:49.284Z,26.6
2019-03-09T09:32:55.234Z,27.4
2019-03-09T09:36:01.201Z,26.1
2019-03-09T09:39:07.165Z,26.5
2019-03-09T09:42:13.530Z,24.1
2019-03-09T09:45:19.559Z,21.8
2019-03-09T09:48:25.454Z,22.2
2019-03-09T09:51:31.393Z,22
2019-03-09T09:54:37.373Z,21.3
2019-03-09T09:57:43.329Z,22.5
2019-03-09T10:00:49.285Z,26.3
2019-03-09T10:03:55.369Z,27.7
2019-03-09T10:07:01.297Z,27.9
2019-03-09T10:10:07.261Z,28.8
2019-03-09T10:13:13.217Z,26.5
2019-03-09T10:16:19.182Z,24.1
2019-03-09T10:19:25.145Z,22.8
2019-03-09T10:22:31.096Z,22.3
2019-03-09T10:25:36.970Z,22
2019-03-09T10:28:43.027Z,22.9
2019-03-09T10:31:48.987Z,28.6
2019-03-09T10:34:54.936Z,26.1
2019-03-09T10:38:00.998Z,24.8
2019-03-09T10:41:06.959Z,23.6
2019-03-09T10:44:12.837Z,23.8
2019-03-09T10:47:18.774Z,21.8
2019-03-09T10:50:27.175Z,23.6
2019-03-09T10:53:33.151Z,21.7
2019-03-09T10:56:39.027Z,21.1
2019-03-09T10:59:45.016Z,21.1
2019-03-09T11:02:51.135Z,22.9
2019-03-09T11:05:59.811Z,22
2019-03-09T11:09:05.824Z,22.1
2019-03-09T11:12:11.779Z,21.7
2019-03-09T11:15:17.842Z,21.1
2019-03-09T11:18:23.815Z,22.2
2019-03-09T11:21:29.756Z,23.9
2019-03-09T11:24:35.822Z,23.4
2019-03-09T11:27:41.886Z,23.8
2019-03-09T11:30:47.847Z,21.8
2019-03-09T11:33:53.908Z,23
2019-03-09T11:36:59.916Z,24.5
2019-03-09T11:40:06.034Z,22.1
2019-03-09T11:43:11.939Z,23.6
2019-03-09T11:46:17.949Z,21.1
2019-03-09T11:49:23.906Z,23.4
2019-03-09T11:52:32.305Z,27.7
2019-03-09T11:55:38.385Z,24.8
2019-03-09T11:58:44.345Z,25.9
2019-03-09T12:01:50.312Z,17.5
2019-03-09T12:04:56.265Z,29.5
2019-03-09T12:08:02.136Z,29.2
2019-03-09T12:11:08.358Z,23.6
2019-03-09T12:14:14.457Z,31.3
2019-03-09T12:17:20.428Z,29
2019-03-09T12:20:26.493Z,18.2
2019-03-09T12:23:32.440Z,17.5
2019-03-09T12:26:38.392Z,18.1
2019-03-09T12:29:44.355Z,17.3
2019-03-09T12:32:50.396Z,16.7
2019-03-09T12:35:56.277Z,16.6
2019-03-09T12:39:02.245Z,15.8
2019-03-09T12:42:08.195Z,15.8
2019-03-09T12:45:14.156Z,16.3
2019-03-09T12:48:20.217Z,15.6
2019-03-09T12:51:26.090Z,14.5
2019-03-09T12:54:32.038Z,14
2019-03-09T12:57:37.994Z,14.2
2019-03-09T13:00:43.886Z,13.9
2019-03-09T13:03:49.906Z,13
2019-03-09T13:06:55.873Z,12.4
2019-03-09T13:10:01.739Z,11.3
2019-03-09T13:13:07.685Z,10.6
2019-03-09T13:16:13.931Z,10.6
2019-03-09T13:19:24.794Z,12.8
2019-03-09T13:22:30.662Z,15.1
2019-03-09T13:25:38.611Z,17.2
2019-03-09T13:28:44.866Z,19.5
2019-03-09T13:31:50.763Z,19.5
2019-03-09T13:34:56.772Z,17.1
2019-03-09T13:38:02.813Z,21.3
2019-03-09T13:41:11.649Z,17.9
2019-03-09T13:44:17.620Z,18.2
2019-03-09T13:47:23.580Z,16.1
2019-03-09T13:50:29.544Z,15.2
2019-03-09T13:53:35.704Z,16.2
2019-03-09T13:56:41.665Z,20.6
2019-03-09T13:59:47.624Z,19.4
2019-03-09T14:02:53.504Z,22.8
2019-03-09T14:05:59.442Z,24.1
2019-03-09T14:09:05.403Z,23.8
2019-03-09T14:12:11.343Z,23
2019-03-09T14:15:17.333Z,22
2019-03-09T14:18:23.389Z,21.5
2019-03-09T14:21:29.351Z,21.4
2019-03-09T14:24:35.215Z,20.4
2019-03-09T14:27:41.170Z,19.8
2019-03-09T14:30:47.063Z,19.6
2019-03-09T14:33:53.085Z,18.5
2019-03-09T14:36:59.047Z,17.9
2019-03-09T14:40:05.000Z,17.7
2019-03-09T14:43:10.902Z,16.6
2019-03-09T14:46:16.774Z,11.3
2019-03-09T14:49:22.809Z,10.3
2019-03-09T14:52:28.711Z,9.8
2019-03-09T14:55:34.705Z,11.5
2019-03-09T14:58:40.661Z,13.6
2019-03-09T15:01:46.622Z,13.1
2019-03-09T15:04:52.684Z,12.2
2019-03-09T15:07:58.642Z,9.4
2019-03-09T15:11:04.706Z,8.6
2019-03-09T15:14:10.769Z,8.8
2019-03-09T15:17:16.715Z,9.1
2019-03-09T15:20:22.677Z,8.5
2019-03-09T15:23:29.248Z,7.5
2019-03-09T15:26:35.212Z,6.9
2019-03-09T15:29:41.168Z,5.9
2019-03-09T15:32:47.133Z,5.7
2019-03-09T15:35:53.111Z,5.6
2019-03-09T15:38:58.960Z,5.6
2019-03-09T15:42:05.115Z,5.2
2019-03-09T15:45:11.255Z,4.6
2019-03-09T15:48:17.235Z,4.1
2019-03-09T15:51:23.301Z,3.6
2019-03-09T15:54:29.277Z,3.2
2019-03-09T15:57:35.316Z,2.9
2019-03-09T16:00:41.192Z,2.5
2019-03-09T16:03:47.139Z,2.2
2019-03-09T16:06:53.010Z,1.8
2019-03-09T16:09:59.052Z,1.5
2019-03-09T16:13:05.046Z,1.1
2019-03-09T16:16:11.073Z,0.9
2019-03-09T16:19:16.955Z,0.6
2019-03-09T16:22:25.151Z,0.4
2019-03-09T16:25:32.037Z,0.4
2019-03-09T16:28:38.000Z,0.2
2019-03-09T16:31:43.956Z,0.1
2019-03-09T16:34:49.905Z,0.1
2019-03-09T16:37:55.864Z,0
2019-03-09T16:41:01.829Z,0
2019-03-09T16:44:07.696Z,0
2019-03-09T16:47:13.647Z,0
2019-03-09T16:50:19.693Z,0
2019-03-09T16:53:25.661Z,0
2019-03-09T16:56:31.534Z,0
2019-03-09T16:59:37.585Z,0
2019-03-09T17:02:43.743Z,0
2019-03-09T17:05:49.710Z,0
2019-03-09T17:08:55.774Z,0
2019-03-09T17:12:04.443Z,0
2019-03-09T17:15:10.451Z,0
2019-03-09T17:18:16.424Z,0
2019-03-09T17:21:22.505Z,0
2019-03-09T17:24:28.387Z,0
2019-03-09T17:27:34.392Z,0
2019-03-09T17:30:40.265Z,0
2019-03-09T17:33:46.208Z,0
2019-03-09T17:36:52.269Z,0
2019-03-09T17:39:58.142Z,0
2019-03-09T17:43:04.160Z,0
2019-03-09T17:46:10.035Z,0
2019-03-09T17:49:16.094Z,0
2019-03-09T17:52:21.962Z,0
2019-03-09T17:55:27.929Z,0
2019-03-09T17:58:33.897Z,0
2019-03-09T18:01:39.792Z,0
2019-03-09T18:04:48.438Z,0
2019-03-09T18:07:54.326Z,0
2019-03-09T18:11:00.281Z,0
2019-03-09T18:14:10.254Z,0
2019-03-09T18:17:16.296Z,0
2019-03-09T18:20:22.260Z,0
2019-03-09T18:23:28.171Z,0
2019-03-09T18:26:34.268Z,0
2019-03-09T18:29:40.241Z,0
2019-03-09T18:32:46.303Z,0
2019-03-09T18:35:52.385Z,0
2019-03-09T18:38:58.422Z,0
2019-03-09T18:42:04.386Z,0
2019-03-09T18:45:10.446Z,0
2019-03-09T18:48:16.410Z,0
2019-03-09T18:51:22.367Z,0
2019-03-09T18:54:28.404Z,0
2019-03-09T18:57:34.385Z,0
2019-03-09T19:00:40.260Z,0
2019-03-09T19:03:46.183Z,0
2019-03-09T19:06:52.169Z,0
2019-03-09T19:09:58.120Z,0
2019-03-09T19:13:04.094Z,0
2019-03-09T19:16:09.960Z,0
2019-03-09T19:19:15.895Z,0
2019-03-09T19:22:21.856Z,0
2019-03-09T19:25:27.830Z,0
2019-03-09T19:28:33.887Z,0
2019-03-09T19:31:39.850Z,0
2019-03-09T19:34:45.713Z,0
2019-03-09T19:37:54.253Z,0
2019-03-09T19:41:00.282Z,0
2019-03-09T19:44:06.147Z,0
2019-03-09T19:47:12.197Z,0
2019-03-09T19:50:18.148Z,0
2019-03-09T19:53:24.220Z,0
2019-03-09T19:56:30.178Z,0
2019-03-09T19:59:36.049Z,0
2019-03-09T20:02:42.191Z,0
2019-03-09T20:05:48.165Z,0
2019-03-09T20:08:54.129Z,0
2019-03-09T20:11:59.987Z,0
2019-03-09T20:15:06.050Z,0
2019-03-09T20:18:11.993Z,0
2019-03-09T20:21:17.952Z,0
2019-03-09T20:24:23.892Z,0
2019-03-09T20:27:29.953Z,0
2019-03-09T20:30:35.827Z,0
2019-03-09T20:33:41.893Z,0
2019-03-09T20:36:47.943Z,0
2019-03-09T20:39:53.924Z,0
2019-03-09T20:42:59.874Z,0
2019-03-09T20:46:05.833Z,0
2019-03-09T20:49:11.791Z,0
2019-03-09T20:52:17.853Z,0
2019-03-09T20:55:23.838Z,0
2019-03-09T20:58:29.876Z,0
2019-03-09T21:01:35.834Z,0
2019-03-09T21:04:42.133Z,0
2019-03-09T21:07:48.007Z,0
2019-03-09T21:11:05.095Z,0
2019-03-09T21:14:11.152Z,0
2019-03-09T21:17:19.917Z,0
2019-03-09T21:20:25.929Z,0
2019-03-09T21:23:31.888Z,0
2019-03-09T21:26:40.182Z,0
2019-03-09T21:29:46.213Z,0
2019-03-09T21:32:52.112Z,0
2019-03-09T21:35:58.081Z,0
2019-03-09T21:39:04.041Z,0
2019-03-09T21:42:10.114Z,0
2019-03-09T21:45:16.050Z,0
2019-03-09T21:48:22.035Z,0
2019-03-09T21:51:28.036Z,0
2019-03-09T21:54:33.941Z,0
2019-03-09T21:57:39.901Z,0
2019-03-09T22:00:45.868Z,0
2019-03-09T22:03:51.737Z,0
2019-03-09T22:06:57.828Z,0
2019-03-09T22:10:03.930Z,0
2019-03-09T22:13:09.903Z,0
2019-03-09T22:16:15.951Z,0
2019-03-09T22:19:21.932Z,0
2019-03-09T22:22:27.892Z,0
2019-03-09T22:25:33.757Z,0
2019-03-09T22:28:39.815Z,0
2019-03-09T22:31:45.692Z,0
2019-03-09T22:34:51.728Z,0
2019-03-09T22:37:57.995Z,0
2019-03-09T22:41:03.955Z,0
2019-03-09T22:44:09.918Z,0
2019-03-09T22:47:15.952Z,0
2019-03-09T22:50:22.017Z,0
2019-03-09T22:53:27.887Z,0
2019-03-09T22:56:34.065Z,0
2019-03-09T22:59:40.061Z,0
2019-03-09T23:02:48.238Z,0
2019-03-09T23:05:54.183Z,0
2019-03-09T23:09:00.245Z,0
2019-03-09T23:12:06.310Z,0
2019-03-09T23:15:12.362Z,0
2019-03-09T23:18:18.330Z,0
2019-03-09T23:21:24.292Z,0
2019-03-09T23:24:30.362Z,0
2019-03-09T23:27:36.311Z,0
2019-03-09T23:30:42.378Z,0
2019-03-09T23:33:48.394Z,0
2019-03-09T23:36:54.253Z,0
2019-03-09T23:40:00.369Z,0
2019-03-09T23:43:06.324Z,0
2019-03-09T23:46:12.186Z,0
2019-03-09T23:49:18.133Z,0
2019-03-09T23:52:24.092Z,0
2019-03-09T23:55:30.052Z,0
2019-03-09T23:58:36.239Z,0
